sensor_id;sensor_type;location;lat;lon;timestamp;pressure;altitude;pressure_sealevel;temperature;humidity
72124;BME280;63818;37.134;-8.548;2023-05-22T00:01:36;100814.0;;;20.4;53.8
72124;BME280;63818;37.134;-8.548;2023-05-22T00:06:22;100811.6;;;20.4;53.8
72124;BME280;63818;37.134;-8.548;2023-05-22T00:11:08;100797.2;;;20.4;53.3
72124;BME280;63818;37.134;-8.548;2023-05-22T00:15:55;100796.0;;;20.4;53.4
72124;BME280;63818;37.134;-8.548;2023-05-22T00:20:41;100795.9;;;20.3;53.5
72124;BME280;63818;37.134;-8.548;2023-05-22T00:25:27;100793.4;;;20.2;52.9
72124;BME280;63818;37.134;-8.548;2023-05-22T00:30:17;100784.0;;;20.2;53.2
72124;BME280;63818;37.134;-8.548;2023-05-22T00:35:03;100776.2;;;20.2;53.4
72124;BME280;63818;37.134;-8.548;2023-05-22T00:39:49;100777.0;;;20.2;53.5
72124;BME280;63818;37.134;-8.548;2023-05-22T00:44:34;100778.2;;;20.2;53.6
72124;BME280;63818;37.134;-8.548;2023-05-22T00:49:20;100773.1;;;20.1;54.1
72124;BME280;63818;37.134;-8.548;2023-05-22T00:54:06;100776.6;;;20.1;54.4
72124;BME280;63818;37.134;-8.548;2023-05-22T00:58:54;100767.6;;;20.1;54.6
72124;BME280;63818;37.134;-8.548;2023-05-22T01:03:41;100768.8;;;20.1;55.1
72124;BME280;63818;37.134;-8.548;2023-05-22T01:08:29;100764.4;;;20.1;55.6
72124;BME280;63818;37.134;-8.548;2023-05-22T01:13:25;100763.7;;;20.1;55.7
72124;BME280;63818;37.134;-8.548;2023-05-22T01:18:19;100764.1;;;20.1;55.8
72124;BME280;63818;37.134;-8.548;2023-05-22T01:23:23;100762.5;;;20.1;55.8
72124;BME280;63818;37.134;-8.548;2023-05-22T01:28:28;100757.8;;;20.1;55.9
72124;BME280;63818;37.134;-8.548;2023-05-22T01:33:17;100754.7;;;20.1;56.1
72124;BME280;63818;37.134;-8.548;2023-05-22T01:38:05;100745.7;;;20.0;56.0
72124;BME280;63818;37.134;-8.548;2023-05-22T01:42:52;100750.7;;;20.0;56.2
72124;BME280;63818;37.134;-8.548;2023-05-22T01:47:38;100746.0;;;20.0;56.0
72124;BME280;63818;37.134;-8.548;2023-05-22T01:52:32;100740.6;;;20.0;55.9
72124;BME280;63818;37.134;-8.548;2023-05-22T01:57:25;100750.3;;;20.0;56.2
72124;BME280;63818;37.134;-8.548;2023-05-22T02:02:16;100744.4;;;20.0;56.3
72124;BME280;63818;37.134;-8.548;2023-05-22T02:07:03;100735.8;;;20.0;56.8
72124;BME280;63818;37.134;-8.548;2023-05-22T02:11:50;100738.6;;;20.0;56.4
72124;BME280;63818;37.134;-8.548;2023-05-22T02:16:36;100736.2;;;19.9;56.6
72124;BME280;63818;37.134;-8.548;2023-05-22T02:21:22;100728.8;;;19.9;56.7
72124;BME280;63818;37.134;-8.548;2023-05-22T02:26:08;100727.2;;;19.9;56.5
72124;BME280;63818;37.134;-8.548;2023-05-22T02:30:55;100729.9;;;19.9;56.5
72124;BME280;63818;37.134;-8.548;2023-05-22T02:35:41;100723.6;;;19.9;56.7
72124;BME280;63818;37.134;-8.548;2023-05-22T02:40:26;100728.7;;;19.9;56.9
72124;BME280;63818;37.134;-8.548;2023-05-22T02:45:12;100722.8;;;19.9;56.7
72124;BME280;63818;37.134;-8.548;2023-05-22T02:49:58;100718.9;;;19.8;56.7
72124;BME280;63818;37.134;-8.548;2023-05-22T02:54:44;100719.3;;;19.9;56.9
72124;BME280;63818;37.134;-8.548;2023-05-22T02:59:29;100721.2;;;19.8;56.5
72124;BME280;63818;37.134;-8.548;2023-05-22T03:04:18;100724.0;;;19.8;56.6
72124;BME280;63818;37.134;-8.548;2023-05-22T03:09:04;100716.2;;;19.8;56.9
72124;BME280;63818;37.134;-8.548;2023-05-22T03:13:52;100715.8;;;19.8;56.8
72124;BME280;63818;37.134;-8.548;2023-05-22T03:18:40;100720.8;;;19.8;57.0
72124;BME280;63818;37.134;-8.548;2023-05-22T03:23:27;100729.4;;;19.8;57.2
72124;BME280;63818;37.134;-8.548;2023-05-22T03:28:13;100725.4;;;19.8;57.1
72124;BME280;63818;37.134;-8.548;2023-05-22T03:32:59;100720.7;;;19.7;57.5
72124;BME280;63818;37.134;-8.548;2023-05-22T03:37:45;100719.5;;;19.7;57.8
72124;BME280;63818;37.134;-8.548;2023-05-22T03:42:31;100718.7;;;19.7;58.1
72124;BME280;63818;37.134;-8.548;2023-05-22T03:47:19;100717.5;;;19.6;58.2
72124;BME280;63818;37.134;-8.548;2023-05-22T03:52:08;100715.9;;;19.6;58.6
72124;BME280;63818;37.134;-8.548;2023-05-22T03:56:54;100722.9;;;19.6;59.0
72124;BME280;63818;37.134;-8.548;2023-05-22T04:01:40;100719.4;;;19.6;58.9
72124;BME280;63818;37.134;-8.548;2023-05-22T04:06:28;100728.3;;;19.6;59.1
72124;BME280;63818;37.134;-8.548;2023-05-22T04:11:15;100717.4;;;19.6;59.5
72124;BME280;63818;37.134;-8.548;2023-05-22T04:16:01;100732.6;;;19.6;59.9
72124;BME280;63818;37.134;-8.548;2023-05-22T04:20:47;100727.4;;;19.5;60.1
72124;BME280;63818;37.134;-8.548;2023-05-22T04:25:33;100728.1;;;19.5;59.6
72124;BME280;63818;37.134;-8.548;2023-05-22T04:30:19;100727.8;;;19.5;59.3
72124;BME280;63818;37.134;-8.548;2023-05-22T04:35:06;100729.7;;;19.5;59.3
72124;BME280;63818;37.134;-8.548;2023-05-22T04:40:34;100731.5;;;19.4;59.3
72124;BME280;63818;37.134;-8.548;2023-05-22T04:45:20;100725.7;;;19.4;59.0
72124;BME280;63818;37.134;-8.548;2023-05-22T04:50:07;100722.6;;;19.4;58.9
72124;BME280;63818;37.134;-8.548;2023-05-22T04:54:54;100737.7;;;19.4;58.8
72124;BME280;63818;37.134;-8.548;2023-05-22T04:59:42;100738.5;;;19.4;58.8
72124;BME280;63818;37.134;-8.548;2023-05-22T05:04:29;100740.8;;;19.3;59.1
72124;BME280;63818;37.134;-8.548;2023-05-22T05:09:14;100746.2;;;19.3;58.9
72124;BME280;63818;37.134;-8.548;2023-05-22T05:14:00;100741.9;;;19.3;59.3
72124;BME280;63818;37.134;-8.548;2023-05-22T05:18:46;100743.4;;;19.3;59.3
72124;BME280;63818;37.134;-8.548;2023-05-22T05:23:32;100746.2;;;19.3;59.1
72124;BME280;63818;37.134;-8.548;2023-05-22T05:28:18;100742.6;;;19.3;59.3
72124;BME280;63818;37.134;-8.548;2023-05-22T05:33:05;100750.4;;;19.3;59.3
72124;BME280;63818;37.134;-8.548;2023-05-22T05:37:51;100753.5;;;19.3;59.2
72124;BME280;63818;37.134;-8.548;2023-05-22T05:42:37;100764.7;;;19.2;59.2
72124;BME280;63818;37.134;-8.548;2023-05-22T05:47:22;100763.6;;;19.3;58.5
72124;BME280;63818;37.134;-8.548;2023-05-22T05:52:08;100769.0;;;19.2;58.9
72124;BME280;63818;37.134;-8.548;2023-05-22T05:56:54;100772.8;;;19.2;58.8
72124;BME280;63818;37.134;-8.548;2023-05-22T06:01:42;100768.2;;;19.2;58.6
72124;BME280;63818;37.134;-8.548;2023-05-22T06:06:29;100777.6;;;19.2;58.7
72124;BME280;63818;37.134;-8.548;2023-05-22T06:11:15;100781.0;;;19.2;58.7
72124;BME280;63818;37.134;-8.548;2023-05-22T06:16:02;100778.7;;;19.2;59.0
72124;BME280;63818;37.134;-8.548;2023-05-22T06:20:48;100777.2;;;19.2;58.7
72124;BME280;63818;37.134;-8.548;2023-05-22T06:25:33;100781.0;;;19.2;59.0
72124;BME280;63818;37.134;-8.548;2023-05-22T06:30:19;100779.5;;;19.2;58.8
72124;BME280;63818;37.134;-8.548;2023-05-22T06:35:05;100785.0;;;19.2;58.8
72124;BME280;63818;37.134;-8.548;2023-05-22T06:39:51;100798.9;;;19.2;58.5
72124;BME280;63818;37.134;-8.548;2023-05-22T06:44:40;100798.2;;;19.2;58.7
72124;BME280;63818;37.134;-8.548;2023-05-22T06:49:26;100790.1;;;19.3;58.3
72124;BME280;63818;37.134;-8.548;2023-05-22T06:54:12;100800.3;;;19.3;58.4
72124;BME280;63818;37.134;-8.548;2023-05-22T06:58:58;100805.4;;;19.4;58.2
72124;BME280;63818;37.134;-8.548;2023-05-22T07:03:44;100798.9;;;19.4;58.4
72124;BME280;63818;37.134;-8.548;2023-05-22T07:08:33;100791.3;;;19.5;58.1
72124;BME280;63818;37.134;-8.548;2023-05-22T07:13:19;100786.6;;;19.5;58.5
72124;BME280;63818;37.134;-8.548;2023-05-22T07:18:05;100796.5;;;19.6;58.4
72124;BME280;63818;37.134;-8.548;2023-05-22T07:22:51;100801.6;;;19.6;58.4
72124;BME280;63818;37.134;-8.548;2023-05-22T07:27:37;100802.1;;;19.7;58.7
72124;BME280;63818;37.134;-8.548;2023-05-22T07:32:23;100816.8;;;19.6;58.3
72124;BME280;63818;37.134;-8.548;2023-05-22T07:37:12;100830.1;;;19.7;58.8
72124;BME280;63818;37.134;-8.548;2023-05-22T07:41:58;100826.1;;;19.6;58.8
72124;BME280;63818;37.134;-8.548;2023-05-22T07:46:44;100840.0;;;19.5;58.8
72124;BME280;63818;37.134;-8.548;2023-05-22T07:51:30;100839.6;;;19.5;59.1
72124;BME280;63818;37.134;-8.548;2023-05-22T07:56:16;100845.9;;;19.6;58.2
72124;BME280;63818;37.134;-8.548;2023-05-22T08:01:02;100847.2;;;19.7;57.8
72124;BME280;63818;37.134;-8.548;2023-05-22T08:05:48;100843.5;;;19.5;57.6
72124;BME280;63818;37.134;-8.548;2023-05-22T08:10:37;100836.2;;;19.6;57.4
72124;BME280;63818;37.134;-8.548;2023-05-22T08:15:23;100842.5;;;19.6;56.7
72124;BME280;63818;37.134;-8.548;2023-05-22T08:20:09;100835.5;;;19.7;56.2
72124;BME280;63818;37.134;-8.548;2023-05-22T08:24:55;100842.2;;;19.7;56.3
72124;BME280;63818;37.134;-8.548;2023-05-22T08:29:41;100839.1;;;19.7;55.9
72124;BME280;63818;37.134;-8.548;2023-05-22T08:34:27;100845.4;;;19.8;56.1
72124;BME280;63818;37.134;-8.548;2023-05-22T08:39:14;100845.4;;;19.8;56.2
72124;BME280;63818;37.134;-8.548;2023-05-22T08:43:59;100842.3;;;19.8;55.9
72124;BME280;63818;37.134;-8.548;2023-05-22T08:48:46;100842.4;;;19.8;56.5
72124;BME280;63818;37.134;-8.548;2023-05-22T08:53:34;100845.6;;;19.9;56.7
72124;BME280;63818;37.134;-8.548;2023-05-22T08:58:21;100838.6;;;19.9;56.6
72124;BME280;63818;37.134;-8.548;2023-05-22T09:03:07;100836.8;;;20.0;56.6
72124;BME280;63818;37.134;-8.548;2023-05-22T09:07:55;100838.0;;;20.0;56.4
72124;BME280;63818;37.134;-8.548;2023-05-22T09:12:58;100825.6;;;20.0;55.3
72124;BME280;63818;37.134;-8.548;2023-05-22T09:17:47;100823.3;;;20.1;54.5
72124;BME280;63818;37.134;-8.548;2023-05-22T09:22:36;100827.6;;;20.1;52.4
72124;BME280;63818;37.134;-8.548;2023-05-22T09:27:22;100817.3;;;20.0;50.7
72124;BME280;63818;37.134;-8.548;2023-05-22T09:32:14;100816.2;;;20.0;50.3
72124;BME280;63818;37.134;-8.548;2023-05-22T09:37:02;100815.9;;;20.1;49.9
72124;BME280;63818;37.134;-8.548;2023-05-22T09:41:49;100828.0;;;20.1;50.7
72124;BME280;63818;37.134;-8.548;2023-05-22T09:46:40;100819.1;;;20.1;52.1
72124;BME280;63818;37.134;-8.548;2023-05-22T09:51:26;100837.3;;;20.1;53.7
72124;BME280;63818;37.134;-8.548;2023-05-22T09:56:14;100834.9;;;20.0;54.3
72124;BME280;63818;37.134;-8.548;2023-05-22T10:01:01;100828.6;;;20.0;54.2
72124;BME280;63818;37.134;-8.548;2023-05-22T10:05:49;100824.7;;;20.0;54.1
72124;BME280;63818;37.134;-8.548;2023-05-22T10:10:37;100830.5;;;20.0;54.0
72124;BME280;63818;37.134;-8.548;2023-05-22T10:15:23;100824.7;;;20.0;54.2
72124;BME280;63818;37.134;-8.548;2023-05-22T10:20:11;100830.4;;;19.9;53.2
72124;BME280;63818;37.134;-8.548;2023-05-22T10:24:57;100832.0;;;19.9;52.9
72124;BME280;63818;37.134;-8.548;2023-05-22T10:29:51;100829.4;;;19.9;53.1
72124;BME280;63818;37.134;-8.548;2023-05-22T10:34:49;100838.7;;;20.0;52.9
72124;BME280;63818;37.134;-8.548;2023-05-22T10:39:42;100845.7;;;20.0;53.5
72124;BME280;63818;37.134;-8.548;2023-05-22T10:44:33;100843.3;;;19.9;53.2
72124;BME280;63818;37.134;-8.548;2023-05-22T10:49:29;100837.8;;;19.9;53.9
72124;BME280;63818;37.134;-8.548;2023-05-22T10:54:15;100841.3;;;19.9;54.1
72124;BME280;63818;37.134;-8.548;2023-05-22T10:59:03;100831.2;;;19.9;54.3
72124;BME280;63818;37.134;-8.548;2023-05-22T11:03:54;100825.0;;;20.0;53.4
72124;BME280;63818;37.134;-8.548;2023-05-22T11:08:43;100824.3;;;19.9;53.7
72124;BME280;63818;37.134;-8.548;2023-05-22T11:13:29;100816.9;;;20.0;53.8
72124;BME280;63818;37.134;-8.548;2023-05-22T11:18:21;100817.7;;;20.0;53.5
72124;BME280;63818;37.134;-8.548;2023-05-22T11:23:09;100808.3;;;19.9;53.9
72124;BME280;63818;37.134;-8.548;2023-05-22T11:28:03;100807.9;;;19.9;54.4
72124;BME280;63818;37.134;-8.548;2023-05-22T11:32:50;100807.1;;;19.9;54.2
72124;BME280;63818;37.134;-8.548;2023-05-22T11:37:41;100817.3;;;20.0;55.2
72124;BME280;63818;37.134;-8.548;2023-05-22T11:42:27;100820.0;;;20.0;54.7
72124;BME280;63818;37.134;-8.548;2023-05-22T11:47:13;100811.1;;;20.0;55.6
72124;BME280;63818;37.134;-8.548;2023-05-22T11:52:02;100817.4;;;20.0;56.5
72124;BME280;63818;37.134;-8.548;2023-05-22T11:56:49;100814.3;;;20.1;57.2
72124;BME280;63818;37.134;-8.548;2023-05-22T12:01:43;100818.1;;;20.0;57.1
72124;BME280;63818;37.134;-8.548;2023-05-22T12:06:29;100823.2;;;20.0;57.2
72124;BME280;63818;37.134;-8.548;2023-05-22T12:11:15;100814.1;;;20.0;57.2
72124;BME280;63818;37.134;-8.548;2023-05-22T12:16:25;100809.5;;;20.0;57.4
72124;BME280;63818;37.134;-8.548;2023-05-22T12:21:11;100804.8;;;20.0;57.8
72124;BME280;63818;37.134;-8.548;2023-05-22T12:26:01;100798.2;;;20.0;57.1
72124;BME280;63818;37.134;-8.548;2023-05-22T12:30:51;100791.6;;;20.0;56.1
72124;BME280;63818;37.134;-8.548;2023-05-22T12:35:38;100782.7;;;20.0;53.4
72124;BME280;63818;37.134;-8.548;2023-05-22T12:40:31;100781.1;;;20.0;52.6
72124;BME280;63818;37.134;-8.548;2023-05-22T12:45:17;100798.0;;;20.1;53.5
72124;BME280;63818;37.134;-8.548;2023-05-22T12:50:03;100798.5;;;20.2;55.0
72124;BME280;63818;37.134;-8.548;2023-05-22T12:54:49;100811.8;;;20.2;56.5
72124;BME280;63818;37.134;-8.548;2023-05-22T12:59:36;100820.3;;;20.2;57.4
72124;BME280;63818;37.134;-8.548;2023-05-22T13:04:22;100830.9;;;20.2;58.0
72124;BME280;63818;37.134;-8.548;2023-05-22T13:09:07;100825.0;;;20.2;56.8
72124;BME280;63818;37.134;-8.548;2023-05-22T13:13:53;100830.9;;;20.2;56.7
72124;BME280;63818;37.134;-8.548;2023-05-22T13:18:39;100833.9;;;20.1;55.3
72124;BME280;63818;37.134;-8.548;2023-05-22T13:23:26;100844.9;;;20.2;56.8
72124;BME280;63818;37.134;-8.548;2023-05-22T13:28:12;100849.5;;;20.1;55.2
72124;BME280;63818;37.134;-8.548;2023-05-22T13:32:57;100830.3;;;20.1;53.7
72124;BME280;63818;37.134;-8.548;2023-05-22T13:37:44;100797.5;;;20.0;55.4
72124;BME280;63818;37.134;-8.548;2023-05-22T13:42:30;100810.6;;;19.9;59.7
72124;BME280;63818;37.134;-8.548;2023-05-22T13:47:16;100824.9;;;19.9;62.7
72124;BME280;63818;37.134;-8.548;2023-05-22T13:52:01;100828.7;;;19.8;62.2
72124;BME280;63818;37.134;-8.548;2023-05-22T13:56:47;100838.5;;;19.8;62.9
72124;BME280;63818;37.134;-8.548;2023-05-22T14:01:33;100830.3;;;19.8;63.6
72124;BME280;63818;37.134;-8.548;2023-05-22T14:06:21;100832.7;;;19.8;64.1
72124;BME280;63818;37.134;-8.548;2023-05-22T14:11:07;100845.1;;;19.8;64.7
72124;BME280;63818;37.134;-8.548;2023-05-22T14:15:53;100867.8;;;19.9;65.5
72124;BME280;63818;37.134;-8.548;2023-05-22T14:20:39;100865.5;;;19.9;64.9
72124;BME280;63818;37.134;-8.548;2023-05-22T14:25:26;100846.0;;;19.9;64.7
72124;BME280;63818;37.134;-8.548;2023-05-22T14:30:12;100854.6;;;19.9;64.2
72124;BME280;63818;37.134;-8.548;2023-05-22T14:34:58;100851.3;;;19.8;62.0
72124;BME280;63818;37.134;-8.548;2023-05-22T14:39:44;100837.7;;;19.8;62.0
72124;BME280;63818;37.134;-8.548;2023-05-22T14:44:30;100842.9;;;19.9;61.0
72124;BME280;63818;37.134;-8.548;2023-05-22T14:49:16;100835.2;;;19.9;59.1
72124;BME280;63818;37.134;-8.548;2023-05-22T14:54:02;100837.0;;;20.1;59.0
72124;BME280;63818;37.134;-8.548;2023-05-22T14:58:48;100831.8;;;20.3;58.7
72124;BME280;63818;37.134;-8.548;2023-05-22T15:03:35;100832.8;;;20.5;58.4
72124;BME280;63818;37.134;-8.548;2023-05-22T15:08:23;100831.3;;;20.5;57.6
72124;BME280;63818;37.134;-8.548;2023-05-22T15:13:09;100811.5;;;20.6;58.3
72124;BME280;63818;37.134;-8.548;2023-05-22T15:17:55;100821.3;;;20.7;57.7
72124;BME280;63818;37.134;-8.548;2023-05-22T15:22:43;100818.7;;;20.7;58.3
72124;BME280;63818;37.134;-8.548;2023-05-22T15:27:29;100828.8;;;20.7;57.9
72124;BME280;63818;37.134;-8.548;2023-05-22T15:32:15;100828.4;;;20.7;58.4
72124;BME280;63818;37.134;-8.548;2023-05-22T15:37:01;100825.8;;;20.8;58.3
72124;BME280;63818;37.134;-8.548;2023-05-22T15:41:48;100815.6;;;20.8;58.4
72124;BME280;63818;37.134;-8.548;2023-05-22T15:46:34;100818.4;;;20.8;58.6
72124;BME280;63818;37.134;-8.548;2023-05-22T15:51:20;100802.4;;;20.8;57.1
72124;BME280;63818;37.134;-8.548;2023-05-22T15:56:06;100805.5;;;20.9;57.5
72124;BME280;63818;37.134;-8.548;2023-05-22T16:00:52;100794.2;;;20.9;57.9
72124;BME280;63818;37.134;-8.548;2023-05-22T16:05:39;100788.7;;;20.8;57.6
72124;BME280;63818;37.134;-8.548;2023-05-22T16:10:25;100791.6;;;20.6;56.3
72124;BME280;63818;37.134;-8.548;2023-05-22T16:15:11;100791.6;;;20.9;56.5
72124;BME280;63818;37.134;-8.548;2023-05-22T16:19:57;100798.2;;;21.3;58.0
72124;BME280;63818;37.134;-8.548;2023-05-22T16:24:43;100802.5;;;21.3;57.6
72124;BME280;63818;37.134;-8.548;2023-05-22T16:29:29;100817.7;;;21.3;57.9
72124;BME280;63818;37.134;-8.548;2023-05-22T16:34:15;100832.7;;;21.1;59.0
72124;BME280;63818;37.134;-8.548;2023-05-22T16:39:03;100834.5;;;20.9;59.4
72124;BME280;63818;37.134;-8.548;2023-05-22T16:43:49;100849.7;;;20.9;61.0
72124;BME280;63818;37.134;-8.548;2023-05-22T16:48:35;100857.8;;;20.9;61.8
72124;BME280;63818;37.134;-8.548;2023-05-22T16:53:21;100868.7;;;20.9;62.8
72124;BME280;63818;37.134;-8.548;2023-05-22T16:58:07;100873.4;;;20.8;63.4
72124;BME280;63818;37.134;-8.548;2023-05-22T17:02:52;100885.8;;;20.8;64.7
72124;BME280;63818;37.134;-8.548;2023-05-22T17:07:38;100888.9;;;20.7;65.4
72124;BME280;63818;37.134;-8.548;2023-05-22T17:12:26;100889.6;;;20.7;65.9
72124;BME280;63818;37.134;-8.548;2023-05-22T17:17:12;100887.6;;;20.7;66.6
72124;BME280;63818;37.134;-8.548;2023-05-22T17:22:01;100887.2;;;20.6;66.9
72124;BME280;63818;37.134;-8.548;2023-05-22T17:26:47;100895.4;;;20.6;67.6
72124;BME280;63818;37.134;-8.548;2023-05-22T17:31:33;100884.0;;;20.6;68.0
72124;BME280;63818;37.134;-8.548;2023-05-22T17:36:20;100879.3;;;20.6;68.3
72124;BME280;63818;37.134;-8.548;2023-05-22T17:41:06;100880.8;;;20.5;68.7
72124;BME280;63818;37.134;-8.548;2023-05-22T17:45:52;100871.9;;;20.5;69.2
72124;BME280;63818;37.134;-8.548;2023-05-22T17:50:38;100874.2;;;20.5;69.1
72124;BME280;63818;37.134;-8.548;2023-05-22T17:55:25;100866.7;;;20.5;68.9
72124;BME280;63818;37.134;-8.548;2023-05-22T18:00:15;100857.8;;;20.5;69.0
72124;BME280;63818;37.134;-8.548;2023-05-22T18:05:01;100853.9;;;20.5;68.5
72124;BME280;63818;37.134;-8.548;2023-05-22T18:09:47;100855.8;;;20.5;68.8
72124;BME280;63818;37.134;-8.548;2023-05-22T18:14:33;100853.1;;;20.5;69.0
72124;BME280;63818;37.134;-8.548;2023-05-22T18:19:19;100850.0;;;20.5;69.0
72124;BME280;63818;37.134;-8.548;2023-05-22T18:24:05;100855.1;;;20.5;69.0
72124;BME280;63818;37.134;-8.548;2023-05-22T18:28:51;100861.4;;;20.5;69.0
72124;BME280;63818;37.134;-8.548;2023-05-22T18:33:37;100864.5;;;20.5;69.5
72124;BME280;63818;37.134;-8.548;2023-05-22T18:38:23;100868.0;;;20.5;69.9
72124;BME280;63818;37.134;-8.548;2023-05-22T18:43:09;100878.5;;;20.5;70.2
72124;BME280;63818;37.134;-8.548;2023-05-22T18:47:55;100898.3;;;20.5;70.2
72124;BME280;63818;37.134;-8.548;2023-05-22T18:52:41;100903.0;;;20.5;70.3
72124;BME280;63818;37.134;-8.548;2023-05-22T18:57:27;100901.4;;;20.5;70.4
72124;BME280;63818;37.134;-8.548;2023-05-22T19:02:13;100915.8;;;20.5;70.3
72124;BME280;63818;37.134;-8.548;2023-05-22T19:06:59;100918.1;;;20.4;70.5
72124;BME280;63818;37.134;-8.548;2023-05-22T19:11:45;100913.8;;;20.4;70.1
72124;BME280;63818;37.134;-8.548;2023-05-22T19:16:31;100918.4;;;20.3;69.3
72124;BME280;63818;37.134;-8.548;2023-05-22T19:21:17;100923.8;;;20.3;69.4
72124;BME280;63818;37.134;-8.548;2023-05-22T19:26:03;100942.2;;;20.3;69.7
72124;BME280;63818;37.134;-8.548;2023-05-22T19:30:49;100955.4;;;20.4;69.8
72124;BME280;63818;37.134;-8.548;2023-05-22T19:35:35;100971.8;;;20.4;69.9
72124;BME280;63818;37.134;-8.548;2023-05-22T19:40:21;100974.9;;;20.3;70.1
72124;BME280;63818;37.134;-8.548;2023-05-22T19:45:07;100985.0;;;20.3;70.0
72124;BME280;63818;37.134;-8.548;2023-05-22T19:49:54;100980.7;;;20.3;70.1
72124;BME280;63818;37.134;-8.548;2023-05-22T19:54:40;100980.7;;;20.3;70.0
72124;BME280;63818;37.134;-8.548;2023-05-22T19:59:26;100976.0;;;20.3;69.8
72124;BME280;63818;37.134;-8.548;2023-05-22T20:04:12;100968.2;;;20.3;69.8
72124;BME280;63818;37.134;-8.548;2023-05-22T20:08:58;100960.8;;;20.3;69.6
72124;BME280;63818;37.134;-8.548;2023-05-22T20:13:43;100951.8;;;20.3;69.4
72124;BME280;63818;37.134;-8.548;2023-05-22T20:18:29;100942.0;;;20.3;69.4
72124;BME280;63818;37.134;-8.548;2023-05-22T20:23:15;100939.7;;;20.3;68.7
72124;BME280;63818;37.134;-8.548;2023-05-22T20:28:02;100935.8;;;20.3;68.4
72124;BME280;63818;37.134;-8.548;2023-05-22T20:32:48;100938.1;;;20.2;68.5
72124;BME280;63818;37.134;-8.548;2023-05-22T20:37:34;100934.5;;;20.2;67.8
72124;BME280;63818;37.134;-8.548;2023-05-22T20:42:20;100936.1;;;20.2;67.6
72124;BME280;63818;37.134;-8.548;2023-05-22T20:47:09;100937.3;;;20.2;67.7
72124;BME280;63818;37.134;-8.548;2023-05-22T20:51:56;100933.0;;;20.2;67.1
72124;BME280;63818;37.134;-8.548;2023-05-22T20:56:43;100942.7;;;20.2;66.6
72124;BME280;63818;37.134;-8.548;2023-05-22T21:01:29;100938.7;;;20.1;66.8
72124;BME280;63818;37.134;-8.548;2023-05-22T21:06:15;100939.2;;;20.2;67.1
72124;BME280;63818;37.134;-8.548;2023-05-22T21:11:03;100949.3;;;20.2;68.0
72124;BME280;63818;37.134;-8.548;2023-05-22T21:15:50;100953.2;;;20.2;68.1
72124;BME280;63818;37.134;-8.548;2023-05-22T21:20:36;100957.0;;;20.1;67.4
72124;BME280;63818;37.134;-8.548;2023-05-22T21:25:22;100959.3;;;20.1;67.6
72124;BME280;63818;37.134;-8.548;2023-05-22T21:30:10;100966.3;;;20.1;67.6
72124;BME280;63818;37.134;-8.548;2023-05-22T21:34:57;100971.0;;;20.1;68.4
72124;BME280;63818;37.134;-8.548;2023-05-22T21:39:42;100971.8;;;20.1;68.8
72124;BME280;63818;37.134;-8.548;2023-05-22T21:44:28;100980.8;;;20.2;68.9
72124;BME280;63818;37.134;-8.548;2023-05-22T21:49:15;100982.4;;;20.2;69.2
72124;BME280;63818;37.134;-8.548;2023-05-22T21:54:01;100987.9;;;20.2;69.6
72124;BME280;63818;37.134;-8.548;2023-05-22T21:58:47;100989.0;;;20.1;68.8
72124;BME280;63818;37.134;-8.548;2023-05-22T22:03:33;100983.1;;;20.1;69.0
72124;BME280;63818;37.134;-8.548;2023-05-22T22:08:21;100982.7;;;20.1;68.8
72124;BME280;63818;37.134;-8.548;2023-05-22T22:13:10;100989.3;;;20.1;68.2
72124;BME280;63818;37.134;-8.548;2023-05-22T22:17:55;100985.4;;;20.1;68.2
72124;BME280;63818;37.134;-8.548;2023-05-22T22:22:41;100984.6;;;20.1;67.4
72124;BME280;63818;37.134;-8.548;2023-05-22T22:27:27;100979.5;;;20.0;66.6
72124;BME280;63818;37.134;-8.548;2023-05-22T22:32:13;100981.0;;;20.0;66.1
72124;BME280;63818;37.134;-8.548;2023-05-22T22:36:59;100967.3;;;20.0;65.9
72124;BME280;63818;37.134;-8.548;2023-05-22T22:41:45;100973.8;;;19.9;65.5
72124;BME280;63818;37.134;-8.548;2023-05-22T22:46:31;100962.1;;;19.9;65.6
72124;BME280;63818;37.134;-8.548;2023-05-22T22:51:17;100955.2;;;19.9;65.7
72124;BME280;63818;37.134;-8.548;2023-05-22T22:56:03;100952.4;;;19.9;65.0
72124;BME280;63818;37.134;-8.548;2023-05-22T23:00:50;100954.0;;;20.0;65.0
72124;BME280;63818;37.134;-8.548;2023-05-22T23:05:36;100952.1;;;20.0;65.2
72124;BME280;63818;37.134;-8.548;2023-05-22T23:10:22;100948.6;;;20.0;65.6
72124;BME280;63818;37.134;-8.548;2023-05-22T23:15:08;100951.7;;;19.9;66.4
72124;BME280;63818;37.134;-8.548;2023-05-22T23:19:54;100950.4;;;19.9;66.1
72124;BME280;63818;37.134;-8.548;2023-05-22T23:24:41;100955.5;;;19.9;66.6
72124;BME280;63818;37.134;-8.548;2023-05-22T23:29:27;100941.1;;;19.9;67.1
72124;BME280;63818;37.134;-8.548;2023-05-22T23:34:13;100943.8;;;19.9;67.2
72124;BME280;63818;37.134;-8.548;2023-05-22T23:38:59;100939.5;;;19.9;67.5
72124;BME280;63818;37.134;-8.548;2023-05-22T23:43:45;100933.3;;;19.9;67.9
72124;BME280;63818;37.134;-8.548;2023-05-22T23:48:32;100929.7;;;19.9;66.9
72124;BME280;63818;37.134;-8.548;2023-05-22T23:53:18;100922.7;;;19.9;65.8
72124;BME280;63818;37.134;-8.548;2023-05-22T23:58:04;100918.0;;;19.8;64.8
